Terminal Aerodrome Forecast
Issued by NWS

Home | Current Version | Previous Version | Text Only | Print | Product List | Glossary On
Versions: 1 2 3 4 5 6 7 8 9 10 11 12 13 14
000
FTUS41 KAKQ 270416 AAA
TAFPHF
TAF AMD
KPHF 270416Z 2704/2724 20010G18KT P6SM BKN250
     FM271000 20009KT P6SM SCT025
     FM271500 21012KT P6SM BKN040=

USA.gov is the U.S. government's official web portal to all federal, state and local government web resources and services.